createdAt,value
2023-03-24T00:00:28.715Z,4.07
2023-03-24T00:02:57.084Z,3.73
2023-03-24T00:05:24.747Z,3.73
2023-03-24T00:07:54.895Z,5.17
2023-03-24T00:10:23.132Z,3.83
2023-03-24T00:12:51.933Z,5.30
2023-03-24T00:15:21.830Z,3.23
2023-03-24T00:17:53.437Z,3.40
2023-03-24T00:20:23.211Z,6.07
2023-03-24T00:22:58.042Z,4.43
2023-03-24T00:25:29.074Z,4.33
2023-03-24T00:27:58.043Z,4.37
2023-03-24T00:30:26.448Z,5.13
2023-03-24T00:32:54.296Z,3.30
2023-03-24T00:35:22.195Z,4.93
2023-03-24T00:37:52.387Z,3.73
2023-03-24T00:40:21.931Z,4.70
2023-03-24T00:42:50.711Z,4.63
2023-03-24T00:45:25.612Z,4.73
2023-03-24T00:47:58.357Z,4.57
2023-03-24T00:50:33.973Z,4.27
2023-03-24T00:53:02.456Z,4.03
2023-03-24T00:55:29.670Z,6.07
2023-03-24T00:57:57.338Z,4.27
2023-03-24T01:00:27.235Z,4.50
2023-03-24T01:02:57.263Z,5.27
2023-03-24T01:05:31.626Z,3.47
2023-03-24T01:08:05.325Z,4.90
2023-03-24T01:10:43.087Z,5.10
2023-03-24T01:13:10.679Z,5.70
2023-03-24T01:15:38.748Z,4.93
2023-03-24T01:18:05.987Z,4.00
2023-03-24T01:20:36.775Z,7.53
2023-03-24T01:23:07.997Z,4.27
2023-03-24T01:25:38.666Z,5.33
2023-03-24T01:28:06.174Z,3.80
2023-03-24T01:30:33.049Z,3.47
2023-03-24T01:33:00.294Z,4.37
2023-03-24T01:35:29.277Z,10.67
2023-03-24T01:37:57.876Z,5.30
2023-03-24T01:40:28.305Z,4.00
2023-03-24T01:42:55.876Z,7.70
2023-03-24T01:45:37.995Z,5.10
2023-03-24T01:48:43.688Z,4.33
2023-03-24T01:51:21.737Z,4.10
2023-03-24T01:54:14.865Z,5.73
2023-03-24T01:56:47.665Z,5.97
2023-03-24T01:59:20.350Z,4.43
2023-03-24T02:01:48.088Z,4.83
2023-03-24T02:04:16.336Z,5.37
2023-03-24T02:06:45.517Z,4.67
2023-03-24T02:09:14.757Z,6.53
2023-03-24T02:11:42.988Z,4.83
2023-03-24T02:14:12.135Z,5.23
2023-03-24T02:17:02.371Z,6.57
2023-03-24T02:19:57.512Z,5.10
2023-03-24T02:22:42.673Z,5.37
2023-03-24T02:25:15.627Z,6.80
2023-03-24T02:27:56.613Z,5.33
2023-03-24T02:30:41.804Z,5.43
2023-03-24T02:33:25.370Z,5.60
2023-03-24T02:36:12.014Z,4.53
2023-03-24T02:39:01.861Z,6.80
2023-03-24T02:41:59.406Z,4.80
2023-03-24T02:44:44.270Z,4.83
2023-03-24T02:47:24.755Z,9.60
2023-03-24T02:50:09.361Z,4.13
2023-03-24T02:52:47.096Z,5.57
2023-03-24T02:55:22.356Z,5.57
2023-03-24T02:58:02.608Z,4.20
2023-03-24T03:00:36.190Z,4.70
2023-03-24T03:03:16.743Z,4.77
2023-03-24T03:05:55.188Z,6.43
2023-03-24T03:08:24.177Z,4.97
2023-03-24T03:10:53.945Z,5.83
2023-03-24T03:13:46.026Z,6.03
2023-03-24T03:16:53.814Z,5.63
2023-03-24T03:19:26.567Z,6.43
2023-03-24T03:21:54.901Z,4.53
2023-03-24T03:24:30.012Z,4.67
2023-03-24T03:27:16.386Z,6.60
2023-03-24T03:29:54.535Z,5.50
2023-03-24T03:32:29.059Z,4.70
2023-03-24T03:35:22.929Z,5.40
2023-03-24T03:38:05.124Z,4.87
2023-03-24T03:40:39.098Z,5.00
2023-03-24T03:43:06.725Z,4.63
2023-03-24T03:45:35.442Z,4.97
2023-03-24T03:48:02.738Z,4.40
2023-03-24T03:50:29.969Z,4.30
2023-03-24T03:52:57.843Z,5.47
2023-03-24T03:55:24.879Z,8.57
2023-03-24T03:57:52.048Z,6.40
2023-03-24T04:00:20.842Z,7.07
2023-03-24T04:02:55.337Z,5.33
2023-03-24T04:05:28.430Z,5.13
2023-03-24T04:07:58.352Z,5.47
2023-03-24T04:10:38.444Z,7.27
2023-03-24T04:13:36.837Z,5.17
2023-03-24T04:16:22.626Z,5.20
2023-03-24T04:19:02.034Z,4.97
2023-03-24T04:21:48.922Z,4.50
2023-03-24T04:24:29.416Z,6.93
2023-03-24T04:27:07.254Z,4.30
2023-03-24T04:29:53.315Z,4.57
2023-03-24T04:32:32.759Z,5.63
2023-03-24T04:35:04.982Z,4.53
2023-03-24T04:37:38.376Z,4.43
2023-03-24T04:40:08.874Z,6.63
2023-03-24T04:42:42.779Z,5.63
2023-03-24T04:45:10.268Z,5.33
2023-03-24T04:47:44.258Z,6.73
2023-03-24T04:50:12.277Z,7.73
2023-03-24T04:52:41.411Z,6.97
2023-03-24T04:55:33.219Z,5.17
2023-03-24T04:57:59.927Z,4.87
2023-03-24T05:00:27.813Z,5.97
2023-03-24T05:02:54.555Z,5.87
2023-03-24T05:05:21.350Z,6.47
2023-03-24T05:07:48.520Z,6.03
2023-03-24T05:10:17.057Z,6.37
2023-03-24T05:12:43.764Z,6.87
2023-03-24T05:15:11.003Z,6.73
2023-03-24T05:17:37.750Z,7.07
2023-03-24T05:20:10.849Z,5.90
2023-03-24T05:22:39.044Z,6.47
2023-03-24T05:25:06.877Z,5.90
2023-03-24T05:27:36.769Z,6.37
2023-03-24T05:30:06.548Z,6.33
2023-03-24T05:32:33.427Z,6.33
2023-03-24T05:35:00.134Z,9.53
2023-03-24T05:37:27.690Z,7.37
2023-03-24T05:39:55.968Z,9.80
2023-03-24T05:42:23.094Z,7.00
2023-03-24T05:44:50.204Z,5.07
2023-03-24T05:47:17.067Z,8.70
2023-03-24T05:49:43.789Z,9.20
2023-03-24T05:52:11.851Z,7.43
2023-03-24T05:54:39.719Z,9.17
2023-03-24T05:57:10.496Z,9.17
2023-03-24T05:59:38.252Z,6.27
2023-03-24T06:02:05.606Z,5.50
2023-03-24T06:04:32.637Z,8.87
2023-03-24T06:07:00.315Z,8.00
2023-03-24T06:09:37.169Z,8.57
2023-03-24T06:12:06.038Z,5.97
2023-03-24T06:14:35.310Z,6.33
2023-03-24T06:17:02.302Z,6.70
2023-03-24T06:19:30.982Z,5.50
2023-03-24T06:22:02.977Z,8.03
2023-03-24T06:24:30.278Z,8.33
2023-03-24T06:27:02.581Z,5.33
2023-03-24T06:29:31.343Z,6.00
2023-03-24T06:31:58.113Z,5.60
2023-03-24T06:34:25.488Z,8.17
2023-03-24T06:36:52.951Z,5.10
2023-03-24T06:39:19.718Z,5.57
2023-03-24T06:41:46.635Z,8.00
2023-03-24T06:44:13.895Z,10.47
2023-03-24T06:46:40.878Z,5.80
2023-03-24T06:49:08.460Z,6.77
2023-03-24T06:51:35.855Z,6.43
2023-03-24T06:54:03.630Z,6.10
2023-03-24T06:56:30.882Z,9.90
2023-03-24T06:58:57.909Z,9.43
2023-03-24T07:01:24.884Z,6.20
2023-03-24T07:03:51.776Z,6.70
2023-03-24T07:06:19.142Z,8.70
2023-03-24T07:08:46.279Z,8.57
2023-03-24T07:11:13.673Z,8.17
2023-03-24T07:13:40.708Z,10.00
2023-03-24T07:16:08.080Z,8.13
2023-03-24T07:18:34.871Z,6.83
2023-03-24T07:21:01.755Z,5.57
2023-03-24T07:23:28.614Z,5.80
2023-03-24T07:25:55.428Z,9.27
2023-03-24T07:28:22.251Z,9.90
2023-03-24T07:30:49.130Z,6.13
2023-03-24T07:33:15.917Z,6.53
2023-03-24T07:35:43.973Z,6.17
2023-03-24T07:38:11.026Z,7.97
2023-03-24T07:40:38.288Z,6.57
2023-03-24T07:43:06.833Z,6.10
2023-03-24T07:45:33.979Z,6.23
2023-03-24T07:48:03.553Z,7.40
2023-03-24T07:50:31.788Z,6.90
2023-03-24T07:53:00.139Z,6.70
2023-03-24T07:55:27.540Z,7.53
2023-03-24T07:57:54.524Z,5.03
2023-03-24T08:00:22.022Z,6.53
2023-03-24T08:02:52.403Z,5.53
2023-03-24T08:05:22.678Z,7.00
2023-03-24T08:07:53.824Z,6.93
2023-03-24T08:10:24.328Z,5.23
2023-03-24T08:12:52.126Z,4.50
2023-03-24T08:15:19.256Z,9.40
2023-03-24T08:17:48.392Z,10.03
2023-03-24T08:20:15.860Z,6.50
2023-03-24T08:22:45.827Z,4.40
2023-03-24T08:25:13.352Z,5.87
2023-03-24T08:27:40.963Z,5.17
2023-03-24T08:30:10.657Z,6.23
2023-03-24T08:32:37.699Z,5.23
2023-03-24T08:35:05.355Z,6.73
2023-03-24T08:37:32.199Z,4.80
2023-03-24T08:39:59.172Z,5.47
2023-03-24T08:42:26.280Z,5.00
2023-03-24T08:44:53.430Z,5.80
2023-03-24T08:47:20.377Z,5.70
2023-03-24T08:49:47.252Z,4.83
2023-03-24T08:52:14.070Z,4.97
2023-03-24T08:54:40.803Z,4.00
2023-03-24T08:57:07.860Z,6.83
2023-03-24T08:59:35.032Z,5.17
2023-03-24T09:06:05.183Z,5.00
2023-03-24T09:09:15.538Z,5.43
2023-03-24T09:11:49.560Z,5.57
2023-03-24T09:15:01.151Z,5.50
2023-03-24T09:21:33.362Z,5.07
2023-03-24T09:28:55.210Z,6.93
2023-03-24T09:36:05.720Z,8.60
2023-03-24T09:38:38.703Z,5.50
2023-03-24T09:41:17.329Z,6.47
2023-03-24T09:43:52.589Z,4.10
2023-03-24T09:46:48.761Z,4.80
2023-03-24T09:49:28.939Z,4.53
2023-03-24T09:52:07.645Z,3.87
2023-03-24T09:54:43.532Z,4.80
2023-03-24T09:57:24.852Z,5.20
2023-03-24T09:59:51.675Z,5.13
2023-03-24T10:02:20.642Z,4.23
2023-03-24T10:04:48.234Z,5.03
2023-03-24T10:07:25.473Z,4.33
2023-03-24T10:10:00.046Z,4.07
2023-03-24T10:12:37.297Z,4.67
2023-03-24T10:15:41.380Z,4.57
2023-03-24T10:18:29.190Z,4.30
2023-03-24T10:21:32.885Z,5.10
2023-03-24T10:24:10.685Z,4.83
2023-03-24T10:26:55.637Z,5.90
2023-03-24T10:29:29.252Z,5.47
2023-03-24T10:32:17.150Z,4.37
2023-03-24T10:34:48.546Z,4.97
2023-03-24T10:37:16.720Z,4.63
2023-03-24T10:39:45.289Z,5.13
2023-03-24T10:42:22.120Z,5.73
2023-03-24T10:44:51.269Z,5.37
2023-03-24T10:47:32.552Z,4.60
2023-03-24T10:50:14.046Z,5.57
2023-03-24T10:53:13.697Z,4.93
2023-03-24T11:00:07.056Z,5.20
2023-03-24T11:02:57.062Z,3.07
2023-03-24T11:05:30.822Z,4.80
2023-03-24T11:08:18.576Z,3.37
2023-03-24T11:10:45.752Z,3.40
2023-03-24T11:13:33.810Z,2.57
2023-03-24T11:16:09.490Z,2.50
2023-03-24T11:18:36.339Z,2.10
2023-03-24T11:21:04.860Z,2.93
2023-03-24T11:23:32.037Z,2.93
2023-03-24T11:26:19.597Z,3.47
2023-03-24T11:28:47.610Z,2.27
2023-03-24T11:31:24.741Z,2.00
2023-03-24T11:34:01.839Z,2.97
2023-03-24T11:36:33.386Z,1.90
2023-03-24T11:43:10.334Z,2.27
2023-03-24T11:46:35.912Z,4.07
2023-03-24T11:54:24.114Z,2.47
2023-03-24T12:09:23.066Z,4.03
2023-03-24T12:12:09.107Z,3.00
2023-03-24T12:16:20.549Z,2.33
2023-03-24T12:19:09.343Z,3.00
2023-03-24T12:22:08.689Z,3.83
2023-03-24T12:24:58.797Z,3.87
2023-03-24T12:28:01.490Z,2.30
2023-03-24T12:31:09.273Z,2.03
2023-03-24T12:37:51.895Z,3.90
2023-03-24T12:45:11.464Z,2.50
2023-03-24T12:48:27.457Z,2.20
2023-03-24T12:51:33.639Z,3.13
2023-03-24T13:12:59.638Z,2.17
2023-03-24T13:19:39.188Z,3.47
2023-03-24T13:26:10.975Z,1.40
2023-03-24T13:37:02.196Z,1.30
2023-03-24T13:42:01.831Z,1.83
2023-03-24T14:21:35.230Z,2.30
2023-03-24T14:24:05.660Z,3.03
2023-03-24T14:26:35.406Z,3.60
2023-03-24T14:29:06.067Z,1.10
2023-03-24T14:31:36.896Z,1.20
2023-03-24T14:34:31.018Z,1.17
2023-03-24T14:37:08.058Z,1.53
2023-03-24T14:39:44.875Z,2.03
2023-03-24T14:42:27.486Z,0.97
2023-03-24T14:45:03.946Z,1.47
2023-03-24T14:47:34.619Z,1.20
2023-03-24T14:50:11.146Z,1.10
2023-03-24T14:52:49.267Z,1.20
2023-03-24T14:55:20.089Z,1.00
2023-03-24T14:57:53.396Z,1.30
2023-03-24T15:00:47.231Z,1.33
2023-03-24T15:03:40.388Z,1.17
2023-03-24T15:06:25.811Z,1.20
2023-03-24T15:08:59.008Z,2.30
2023-03-24T15:11:32.710Z,1.73
2023-03-24T15:14:02.300Z,0.80
2023-03-24T15:16:36.183Z,1.07
2023-03-24T15:19:25.782Z,1.10
2023-03-24T15:22:09.949Z,3.97
2023-03-24T15:24:38.842Z,1.20
2023-03-24T15:27:07.005Z,1.33
2023-03-24T15:29:39.975Z,1.20
2023-03-24T15:32:07.975Z,1.20
2023-03-24T15:34:35.138Z,1.30
2023-03-24T15:37:19.341Z,1.57
2023-03-24T15:39:51.200Z,1.57
2023-03-24T15:42:22.892Z,2.00
2023-03-24T15:44:51.680Z,2.00
2023-03-24T15:47:22.211Z,1.40
2023-03-24T15:49:57.242Z,1.67
2023-03-24T15:52:39.152Z,1.90
2023-03-24T15:55:35.380Z,1.50
2023-03-24T15:58:23.634Z,2.63
2023-03-24T16:00:55.439Z,1.60
2023-03-24T16:03:26.972Z,2.13
2023-03-24T16:05:56.872Z,1.20
2023-03-24T16:08:32.185Z,1.77
2023-03-24T16:11:11.192Z,1.63
2023-03-24T16:13:42.510Z,2.13
2023-03-24T16:16:15.502Z,3.40
2023-03-24T16:18:45.567Z,3.73
2023-03-24T16:21:20.099Z,2.13
2023-03-24T16:23:48.284Z,3.57
2023-03-24T16:26:26.582Z,3.93
2023-03-24T16:28:55.166Z,3.40
2023-03-24T16:31:25.944Z,4.03
2023-03-24T16:33:58.160Z,2.47
2023-03-24T16:36:29.206Z,2.13
2023-03-24T16:38:59.022Z,1.70
2023-03-24T16:41:26.688Z,1.20
2023-03-24T16:43:54.303Z,1.27
2023-03-24T16:46:32.882Z,1.20
2023-03-24T16:49:01.779Z,1.60
2023-03-24T16:51:31.984Z,1.10
2023-03-24T16:57:02.401Z,1.97
2023-03-24T16:59:35.826Z,2.73
2023-03-24T17:02:06.102Z,2.27
2023-03-24T17:04:41.804Z,1.33
2023-03-24T17:07:11.814Z,2.93
2023-03-24T17:09:39.079Z,1.33
2023-03-24T17:12:06.528Z,3.50
2023-03-24T17:14:38.515Z,1.20
2023-03-24T17:17:14.245Z,2.30
2023-03-24T17:19:50.708Z,2.50
2023-03-24T17:22:19.292Z,1.40
2023-03-24T17:24:58.374Z,2.37
2023-03-24T17:27:31.621Z,1.33
2023-03-24T17:29:59.175Z,2.43
2023-03-24T17:32:30.442Z,1.83
2023-03-24T17:34:58.073Z,2.80
2023-03-24T17:37:28.637Z,2.27
2023-03-24T17:39:57.309Z,1.77
2023-03-24T17:42:27.736Z,2.50
2023-03-24T17:44:55.078Z,2.10
2023-03-24T17:47:22.952Z,1.63
2023-03-24T17:49:50.512Z,2.60
2023-03-24T17:52:21.647Z,1.77
2023-03-24T17:54:48.971Z,2.20
2023-03-24T17:57:16.247Z,1.60
2023-03-24T17:59:43.639Z,2.50
2023-03-24T18:02:13.714Z,0.90
2023-03-24T18:04:40.966Z,1.17
2023-03-24T18:07:08.185Z,1.93
2023-03-24T18:09:36.595Z,1.77
2023-03-24T18:12:03.935Z,1.90
2023-03-24T18:14:31.528Z,2.13
2023-03-24T18:16:58.799Z,1.73
2023-03-24T18:19:26.293Z,1.70
2023-03-24T18:21:53.579Z,2.33
2023-03-24T18:24:21.131Z,1.43
2023-03-24T18:26:50.361Z,3.50
2023-03-24T18:29:18.094Z,1.10
2023-03-24T18:31:45.313Z,2.30
2023-03-24T18:34:12.602Z,1.53
2023-03-24T18:36:40.678Z,1.93
2023-03-24T18:39:11.973Z,1.40
2023-03-24T18:41:39.992Z,1.20
2023-03-24T18:44:11.751Z,1.43
2023-03-24T18:46:40.386Z,1.90
2023-03-24T18:49:08.283Z,1.43
2023-03-24T18:51:36.271Z,1.97
2023-03-24T18:54:03.535Z,1.47
2023-03-24T18:56:31.512Z,2.03
2023-03-24T18:58:58.441Z,1.93
2023-03-24T19:01:25.373Z,3.80
2023-03-24T19:03:53.290Z,4.47
2023-03-24T19:06:20.891Z,3.13
2023-03-24T19:08:52.538Z,2.77
2023-03-24T19:11:19.593Z,2.30
2023-03-24T19:13:47.486Z,2.10
2023-03-24T19:16:14.575Z,3.30
2023-03-24T19:18:41.702Z,2.43
2023-03-24T19:21:09.168Z,2.20
2023-03-24T19:23:36.428Z,2.30
2023-03-24T19:26:04.179Z,1.63
2023-03-24T19:28:35.121Z,2.90
2023-03-24T19:31:09.027Z,2.17
2023-03-24T19:33:37.415Z,3.40
2023-03-24T19:36:06.104Z,1.90
2023-03-24T19:38:33.338Z,2.87
2023-03-24T19:41:09.037Z,1.50
2023-03-24T19:43:36.876Z,4.27
2023-03-24T19:46:05.606Z,2.33
2023-03-24T19:48:36.151Z,2.03
2023-03-24T19:51:03.632Z,2.33
2023-03-24T19:53:30.807Z,3.37
2023-03-24T19:55:58.982Z,3.30
2023-03-24T19:58:26.007Z,3.10
2023-03-24T20:00:52.860Z,3.60
2023-03-24T20:03:19.830Z,3.77
2023-03-24T20:05:46.713Z,2.37
2023-03-24T20:08:13.709Z,2.50
2023-03-24T20:10:40.749Z,3.33
2023-03-24T20:13:08.959Z,2.80
2023-03-24T20:15:36.293Z,2.97
2023-03-24T20:18:03.248Z,2.80
2023-03-24T20:20:30.106Z,1.70
2023-03-24T20:22:56.820Z,2.77
2023-03-24T20:25:23.626Z,2.50
2023-03-24T20:27:50.424Z,2.87
2023-03-24T20:30:18.958Z,1.77
2023-03-24T20:32:46.082Z,2.87
2023-03-24T20:35:13.250Z,2.60
2023-03-24T20:37:39.979Z,1.73
2023-03-24T20:40:09.824Z,2.03
2023-03-24T20:42:37.390Z,3.03
2023-03-24T20:45:05.810Z,2.33
2023-03-24T20:47:32.755Z,1.90
2023-03-24T20:49:59.498Z,1.93
2023-03-24T20:52:27.315Z,2.03
2023-03-24T20:54:54.352Z,2.60
2023-03-24T20:57:21.197Z,2.27
2023-03-24T20:59:48.950Z,2.27
2023-03-24T21:02:16.155Z,1.70
2023-03-24T21:04:43.528Z,2.10
2023-03-24T21:07:11.325Z,1.57
2023-03-24T21:09:38.267Z,2.40
2023-03-24T21:12:06.744Z,2.20
2023-03-24T21:14:33.960Z,6.23
2023-03-24T21:17:01.669Z,1.73
2023-03-24T21:19:28.718Z,2.43
2023-03-24T21:21:56.283Z,1.83
2023-03-24T21:24:24.374Z,1.73
2023-03-24T21:26:54.234Z,1.87
2023-03-24T21:29:22.700Z,1.50
2023-03-24T21:31:50.032Z,1.97
2023-03-24T21:34:16.849Z,2.27
2023-03-24T21:36:43.643Z,2.03
2023-03-24T21:39:12.188Z,2.60
2023-03-24T21:41:39.945Z,1.47
2023-03-24T21:44:09.608Z,2.67
2023-03-24T21:46:37.170Z,2.73
2023-03-24T21:49:05.415Z,2.13
2023-03-24T21:51:34.634Z,3.13
2023-03-24T21:54:03.636Z,1.83
2023-03-24T21:56:35.265Z,2.37
2023-03-24T21:59:02.575Z,1.77
2023-03-24T22:01:29.564Z,2.67
2023-03-24T22:03:59.059Z,1.90
2023-03-24T22:06:29.323Z,1.77
2023-03-24T22:08:58.808Z,4.20
2023-03-24T22:11:25.998Z,1.53
2023-03-24T22:13:53.217Z,2.03
2023-03-24T22:16:20.294Z,2.57
2023-03-24T22:18:47.618Z,2.57
2023-03-24T22:21:14.590Z,2.60
2023-03-24T22:23:44.811Z,1.60
2023-03-24T22:26:14.659Z,2.30
2023-03-24T22:28:42.683Z,2.03
2023-03-24T22:31:16.563Z,1.80
2023-03-24T22:33:44.419Z,2.70
2023-03-24T22:36:11.773Z,1.97
2023-03-24T22:38:38.619Z,1.60
2023-03-24T22:41:08.453Z,3.83
2023-03-24T22:43:36.535Z,3.73
2023-03-24T22:46:04.440Z,1.53
2023-03-24T22:48:31.553Z,2.27
2023-03-24T22:50:58.264Z,2.23
2023-03-24T22:53:25.252Z,2.03
2023-03-24T22:55:52.390Z,1.90
2023-03-24T22:58:19.525Z,1.93
2023-03-24T23:00:49.310Z,1.50
2023-03-24T23:03:16.893Z,1.50
2023-03-24T23:05:47.062Z,1.70
2023-03-24T23:08:15.869Z,3.53
2023-03-24T23:10:44.594Z,2.13
2023-03-24T23:13:12.357Z,2.47
2023-03-24T23:15:42.837Z,3.40
2023-03-24T23:18:10.163Z,1.53
2023-03-24T23:20:37.740Z,3.67
2023-03-24T23:23:06.745Z,3.07
2023-03-24T23:25:42.620Z,2.00
2023-03-24T23:28:11.122Z,2.03
2023-03-24T23:30:38.735Z,2.23
2023-03-24T23:33:05.860Z,2.03
2023-03-24T23:35:33.378Z,2.00
2023-03-24T23:38:00.108Z,2.20
2023-03-24T23:40:26.859Z,1.80
2023-03-24T23:42:53.580Z,2.50
2023-03-24T23:45:20.935Z,2.67
2023-03-24T23:47:50.858Z,3.53
2023-03-24T23:50:19.168Z,1.97
2023-03-24T23:52:46.394Z,1.60
2023-03-24T23:55:18.293Z,1.93
2023-03-24T23:57:46.685Z,2.67
